createdAt,value
2022-08-16T00:02:33.325Z,62.01
2022-08-16T00:05:00.942Z,61.95
2022-08-16T00:07:29.642Z,62.68
2022-08-16T00:10:00.607Z,62.71
2022-08-16T00:12:30.129Z,61.98
2022-08-16T00:15:00.086Z,62.58
2022-08-16T00:17:28.167Z,62.62
2022-08-16T00:19:55.722Z,63.11
2022-08-16T00:22:24.629Z,63.31
2022-08-16T00:24:55.897Z,63.06
2022-08-16T00:27:23.166Z,62.88
2022-08-16T00:30:08.937Z,63.04
2022-08-16T00:32:41.811Z,62.41
2022-08-16T00:35:15.444Z,62.39
2022-08-16T00:37:58.553Z,61.77
2022-08-16T00:40:36.803Z,61.02
2022-08-16T00:43:23.794Z,60.96
2022-08-16T00:46:22.286Z,61.56
2022-08-16T00:48:55.172Z,62.03
2022-08-16T00:51:25.544Z,62.12
2022-08-16T00:53:56.409Z,62.20
2022-08-16T00:56:58.208Z,62.13
2022-08-16T00:59:16.414Z,62.93
2022-08-16T01:01:44.594Z,62.56
2022-08-16T01:04:30.192Z,62.89
2022-08-16T01:07:03.802Z,62.58
2022-08-16T01:09:38.668Z,62.34
2022-08-16T01:12:11.224Z,62.56
2022-08-16T01:14:58.153Z,62.56
2022-08-16T01:17:28.043Z,62.71
2022-08-16T01:20:23.684Z,62.26
2022-08-16T01:22:59.749Z,61.52
2022-08-16T01:25:34.430Z,61.23
2022-08-16T01:28:07.869Z,61.69
2022-08-16T01:30:40.030Z,61.97
2022-08-16T01:33:17.809Z,61.87
2022-08-16T01:36:01.062Z,61.86
2022-08-16T01:38:30.727Z,61.96
2022-08-16T01:41:02.551Z,62.12
2022-08-16T01:43:33.796Z,62.18
2022-08-16T01:46:37.581Z,62.01
2022-08-16T01:49:03.862Z,61.32
2022-08-16T01:51:31.648Z,61.76
2022-08-16T01:53:59.841Z,61.97
2022-08-16T01:56:31.353Z,61.39
2022-08-16T01:59:01.218Z,61.61
2022-08-16T02:01:29.145Z,61.40
2022-08-16T02:03:58.723Z,61.97
2022-08-16T02:06:45.914Z,62.26
2022-08-16T02:09:17.751Z,61.96
2022-08-16T02:11:55.426Z,61.59
2022-08-16T02:14:26.476Z,61.41
2022-08-16T02:16:57.935Z,61.57
2022-08-16T02:19:59.381Z,61.91
2022-08-16T02:22:34.735Z,61.72
2022-08-16T02:25:08.216Z,62.60
2022-08-16T02:27:36.670Z,62.98
2022-08-16T02:30:08.028Z,62.87
2022-08-16T02:32:50.260Z,63.10
2022-08-16T02:35:23.097Z,62.52
2022-08-16T02:37:52.521Z,62.21
2022-08-16T02:40:22.585Z,62.29
2022-08-16T02:42:51.131Z,62.21
2022-08-16T02:45:20.550Z,62.01
2022-08-16T02:48:00.145Z,61.60
2022-08-16T02:50:53.872Z,61.53
2022-08-16T02:53:26.456Z,61.65
2022-08-16T02:55:53.653Z,62.00
2022-08-16T02:58:25.042Z,62.16
2022-08-16T03:00:55.733Z,61.88
2022-08-16T03:03:26.260Z,61.85
2022-08-16T03:05:54.293Z,61.55
2022-08-16T03:08:50.830Z,61.21
2022-08-16T03:11:16.721Z,61.65
2022-08-16T03:13:48.064Z,62.03
2022-08-16T03:16:33.056Z,61.94
2022-08-16T03:19:08.321Z,61.77
2022-08-16T03:21:38.054Z,62.15
2022-08-16T03:24:27.591Z,61.71
2022-08-16T03:26:59.357Z,61.43
2022-08-16T03:29:30.049Z,62.31
2022-08-16T03:31:59.408Z,62.69
2022-08-16T03:34:28.327Z,62.60
2022-08-16T03:36:55.136Z,62.38
2022-08-16T03:39:22.408Z,62.25
2022-08-16T03:41:59.302Z,62.13
2022-08-16T03:44:44.681Z,62.84
2022-08-16T03:47:19.001Z,63.02
2022-08-16T03:49:51.857Z,63.45
2022-08-16T03:52:23.265Z,63.27
2022-08-16T03:54:58.182Z,63.40
2022-08-16T03:57:32.120Z,63.37
2022-08-16T04:00:20.776Z,63.45
2022-08-16T04:03:08.800Z,63.32
2022-08-16T04:05:46.703Z,63.14
2022-08-16T04:08:22.738Z,62.75
2022-08-16T04:10:58.464Z,63.00
2022-08-16T04:13:58.884Z,63.01
2022-08-16T04:16:26.794Z,62.50
2022-08-16T04:19:02.411Z,62.48
2022-08-16T04:21:34.594Z,62.58
2022-08-16T04:24:04.046Z,62.65
2022-08-16T04:26:35.826Z,62.81
2022-08-16T04:29:17.200Z,62.56
2022-08-16T04:31:56.185Z,62.50
2022-08-16T04:34:30.581Z,62.58
2022-08-16T04:37:01.909Z,62.80
2022-08-16T04:39:37.127Z,63.03
2022-08-16T04:42:17.455Z,63.18
2022-08-16T04:44:57.508Z,63.24
2022-08-16T04:47:35.454Z,62.93
2022-08-16T04:50:15.372Z,62.87
2022-08-16T04:52:59.276Z,62.57
2022-08-16T04:55:37.580Z,62.08
2022-08-16T04:58:44.032Z,62.60
2022-08-16T05:00:53.758Z,62.40
2022-08-16T05:03:23.689Z,62.78
2022-08-16T05:05:59.229Z,63.02
2022-08-16T05:08:32.892Z,63.35
2022-08-16T05:11:11.452Z,63.38
2022-08-16T05:13:43.194Z,62.64
2022-08-16T05:16:23.068Z,63.25
2022-08-16T05:19:04.972Z,63.09
2022-08-16T05:21:42.765Z,63.60
2022-08-16T05:24:11.242Z,63.36
2022-08-16T05:26:40.845Z,63.73
2022-08-16T05:29:10.815Z,63.62
2022-08-16T05:31:48.413Z,63.81
2022-08-16T05:34:22.276Z,63.95
2022-08-16T05:36:52.995Z,63.60
2022-08-16T05:39:22.488Z,63.72
2022-08-16T05:41:51.732Z,64.50
2022-08-16T05:44:23.485Z,64.68
2022-08-16T05:46:55.049Z,64.17
2022-08-16T05:49:26.160Z,64.43
2022-08-16T05:52:13.820Z,63.43
2022-08-16T05:55:00.970Z,62.93
2022-08-16T05:57:34.429Z,62.92
2022-08-16T06:00:05.680Z,63.55
2022-08-16T06:02:39.212Z,64.27
2022-08-16T06:05:15.838Z,64.58
2022-08-16T06:07:43.602Z,65.17
2022-08-16T06:10:32.987Z,64.60
2022-08-16T06:13:03.216Z,64.74
2022-08-16T06:15:30.548Z,64.71
2022-08-16T06:17:59.304Z,64.07
2022-08-16T06:20:35.196Z,63.84
2022-08-16T06:23:17.268Z,63.69
2022-08-16T06:26:07.501Z,64.63
2022-08-16T06:28:37.909Z,63.14
2022-08-16T06:31:12.805Z,64.35
2022-08-16T06:33:44.554Z,64.15
2022-08-16T06:36:14.844Z,64.52
2022-08-16T06:38:55.893Z,64.29
2022-08-16T06:41:59.106Z,63.16
2022-08-16T06:44:51.552Z,62.75
2022-08-16T06:47:53.450Z,61.15
2022-08-16T06:50:28.621Z,62.03
2022-08-16T06:53:00.697Z,60.78
2022-08-16T06:55:34.348Z,61.09
2022-08-16T06:58:08.536Z,61.60
2022-08-16T07:00:51.405Z,60.90
2022-08-16T07:03:27.838Z,62.14
2022-08-16T07:05:56.979Z,61.99
2022-08-16T07:08:32.660Z,62.64
2022-08-16T07:11:00.055Z,61.84
2022-08-16T07:13:58.591Z,62.00
2022-08-16T07:16:20.585Z,59.31
2022-08-16T07:18:58.165Z,61.47
2022-08-16T07:21:28.288Z,61.99
2022-08-16T07:24:29.844Z,61.46
2022-08-16T07:27:08.345Z,62.14
2022-08-16T07:29:37.815Z,60.62
2022-08-16T07:32:09.188Z,60.49
2022-08-16T07:34:37.692Z,59.57
2022-08-16T07:37:15.538Z,59.21
2022-08-16T07:40:07.523Z,59.57
2022-08-16T07:42:40.886Z,59.59
2022-08-16T07:45:10.289Z,59.79
2022-08-16T07:47:41.959Z,59.35
2022-08-16T07:50:56.187Z,59.16
2022-08-16T07:52:57.507Z,58.97
2022-08-16T07:55:26.981Z,58.57
2022-08-16T07:58:00.605Z,58.61
2022-08-16T08:00:29.070Z,58.38
2022-08-16T08:03:00.325Z,57.80
2022-08-16T08:05:35.968Z,58.34
2022-08-16T08:08:11.552Z,57.41
2022-08-16T08:10:39.093Z,57.91
2022-08-16T08:13:05.700Z,57.23
2022-08-16T08:15:37.031Z,57.12
2022-08-16T08:18:29.910Z,56.31
2022-08-16T08:20:59.005Z,54.26
2022-08-16T08:23:27.645Z,53.06
2022-08-16T08:25:55.801Z,53.60
2022-08-16T08:28:27.504Z,53.59
2022-08-16T08:31:06.563Z,55.81
2022-08-16T08:33:38.377Z,54.49
2022-08-16T08:36:11.307Z,54.68
2022-08-16T08:38:51.169Z,54.47
2022-08-16T08:41:20.918Z,54.38
2022-08-16T08:43:56.055Z,53.84
2022-08-16T08:46:25.293Z,53.42
2022-08-16T08:48:59.667Z,53.73
2022-08-16T08:51:35.714Z,52.04
2022-08-16T08:54:09.080Z,51.08
2022-08-16T08:56:45.519Z,50.96
2022-08-16T08:59:26.338Z,49.92
2022-08-16T09:01:56.543Z,52.64
2022-08-16T09:04:28.560Z,52.90
2022-08-16T09:06:58.549Z,51.11
2022-08-16T09:09:33.457Z,51.06
2022-08-16T09:12:06.089Z,51.59
2022-08-16T09:14:49.384Z,51.68
2022-08-16T09:17:45.295Z,52.18
2022-08-16T09:20:08.035Z,51.40
2022-08-16T09:22:35.189Z,51.91
2022-08-16T09:25:09.928Z,50.85
2022-08-16T09:27:57.084Z,49.74
2022-08-16T09:30:33.374Z,50.26
2022-08-16T09:33:02.598Z,50.85
2022-08-16T09:35:30.780Z,50.92
2022-08-16T09:38:00.445Z,51.06
2022-08-16T09:40:32.369Z,49.93
2022-08-16T09:43:37.803Z,51.87
2022-08-16T09:46:00.039Z,49.15
2022-08-16T09:48:36.756Z,49.04
2022-08-16T09:51:12.393Z,49.42
2022-08-16T09:53:39.701Z,48.70
2022-08-16T09:56:20.116Z,49.62
2022-08-16T09:59:05.544Z,49.80
2022-08-16T10:01:36.346Z,48.55
2022-08-16T10:04:13.009Z,50.25
2022-08-16T10:06:56.629Z,47.92
2022-08-16T10:09:25.492Z,48.04
2022-08-16T10:12:31.080Z,47.74
2022-08-16T10:14:57.721Z,51.31
2022-08-16T10:17:25.102Z,50.35
2022-08-16T10:19:53.027Z,48.56
2022-08-16T10:22:23.039Z,49.04
2022-08-16T10:24:56.019Z,49.55
2022-08-16T10:27:29.987Z,49.67
2022-08-16T10:30:25.287Z,50.88
2022-08-16T10:32:55.238Z,50.88
2022-08-16T10:35:21.981Z,48.20
2022-08-16T10:37:52.448Z,50.42
2022-08-16T10:40:29.058Z,49.88
2022-08-16T10:43:01.844Z,50.84
2022-08-16T10:45:36.939Z,50.47
2022-08-16T10:48:27.099Z,51.91
2022-08-16T10:50:53.548Z,50.68
2022-08-16T10:53:20.077Z,50.82
2022-08-16T10:55:48.357Z,48.32
2022-08-16T10:58:34.368Z,47.12
2022-08-16T11:03:54.123Z,46.18
2022-08-16T11:06:27.818Z,47.20
2022-08-16T11:14:29.230Z,50.77
2022-08-16T11:17:10.986Z,48.26
2022-08-16T11:22:42.046Z,46.10
2022-08-16T11:28:06.856Z,49.09
2022-08-16T11:30:38.598Z,48.46
2022-08-16T11:33:07.349Z,47.82
2022-08-16T11:38:46.759Z,47.49
2022-08-16T11:41:09.795Z,45.45
2022-08-16T11:43:39.147Z,47.37
2022-08-16T11:46:44.917Z,47.55
2022-08-16T11:48:58.215Z,47.02
2022-08-16T11:51:24.764Z,47.92
2022-08-16T11:53:51.787Z,47.02
2022-08-16T11:56:39.487Z,47.01
2022-08-16T11:59:08.810Z,47.61
2022-08-16T12:01:55.111Z,49.93
2022-08-16T12:04:23.405Z,47.58
2022-08-16T12:06:53.786Z,49.50
2022-08-16T12:09:21.835Z,46.78
2022-08-16T12:11:52.551Z,45.30
2022-08-16T12:14:22.896Z,46.54
2022-08-16T12:16:55.713Z,47.27
2022-08-16T12:19:35.596Z,47.11
2022-08-16T12:22:05.565Z,46.15
2022-08-16T12:24:45.320Z,47.12
2022-08-16T12:27:14.564Z,47.07
2022-08-16T12:29:42.399Z,46.29
2022-08-16T12:32:26.715Z,46.30
2022-08-16T12:34:55.732Z,46.92
2022-08-16T12:37:24.644Z,45.45
2022-08-16T12:39:55.915Z,45.83
2022-08-16T12:42:34.485Z,48.49
2022-08-16T12:45:04.939Z,48.91
2022-08-16T12:47:49.889Z,46.22
2022-08-16T12:50:18.526Z,45.14
2022-08-16T12:52:53.147Z,48.00
2022-08-16T12:55:20.842Z,46.11
2022-08-16T12:57:58.124Z,46.41
2022-08-16T13:00:32.935Z,46.75
2022-08-16T13:03:01.250Z,46.13
2022-08-16T13:05:28.610Z,46.68
2022-08-16T13:07:58.319Z,46.15
2022-08-16T13:10:38.076Z,44.94
2022-08-16T13:13:09.095Z,44.25
2022-08-16T13:15:50.069Z,44.36
2022-08-16T13:18:27.201Z,44.78
2022-08-16T13:21:00.479Z,45.58
2022-08-16T13:23:27.037Z,45.07
2022-08-16T13:25:55.209Z,43.82
2022-08-16T13:28:22.159Z,43.67
2022-08-16T13:30:54.394Z,41.49
2022-08-16T13:33:30.562Z,42.93
2022-08-16T13:35:59.232Z,44.12
2022-08-16T13:38:35.187Z,44.36
2022-08-16T13:41:09.108Z,44.07
2022-08-16T13:43:37.956Z,43.68
2022-08-16T13:46:05.481Z,42.38
2022-08-16T13:48:43.250Z,42.53
2022-08-16T13:51:16.733Z,42.42
2022-08-16T13:53:49.648Z,43.61
2022-08-16T13:56:25.857Z,42.29
2022-08-16T13:59:02.971Z,42.48
2022-08-16T14:01:29.648Z,43.29
2022-08-16T14:03:57.176Z,43.66
2022-08-16T14:06:25.360Z,42.23
2022-08-16T14:08:59.253Z,43.52
2022-08-16T14:11:34.468Z,44.74
2022-08-16T14:14:01.851Z,44.27
2022-08-16T14:16:33.924Z,43.70
2022-08-16T14:19:06.832Z,44.28
2022-08-16T14:21:35.288Z,44.68
2022-08-16T14:24:03.213Z,44.29
2022-08-16T14:26:41.069Z,45.04
2022-08-16T14:29:11.295Z,45.84
2022-08-16T14:31:39.735Z,46.77
2022-08-16T14:34:07.726Z,45.97
2022-08-16T14:36:38.164Z,45.83
2022-08-16T14:39:09.188Z,46.62
2022-08-16T14:41:36.620Z,46.18
2022-08-16T14:44:06.777Z,45.92
2022-08-16T14:46:33.425Z,47.14
2022-08-16T14:49:01.644Z,46.29
2022-08-16T14:51:28.915Z,46.67
2022-08-16T14:53:56.845Z,49.28
2022-08-16T14:56:38.751Z,48.51
2022-08-16T14:59:10.874Z,48.35
2022-08-16T15:01:58.921Z,48.95
2022-08-16T15:04:32.324Z,49.43
2022-08-16T15:07:06.806Z,49.77
2022-08-16T15:09:44.354Z,48.79
2022-08-16T15:12:30.864Z,49.83
2022-08-16T15:14:58.324Z,51.35
2022-08-16T15:17:27.509Z,50.71
2022-08-16T15:20:01.673Z,50.47
2022-08-16T15:22:31.357Z,50.02
2022-08-16T15:25:01.954Z,50.62
2022-08-16T15:27:33.625Z,51.29
2022-08-16T15:30:58.410Z,49.20
2022-08-16T15:33:00.199Z,48.33
2022-08-16T15:35:27.163Z,47.16
2022-08-16T15:37:56.630Z,45.99
2022-08-16T15:40:32.119Z,47.01
2022-08-16T15:43:03.882Z,47.35
2022-08-16T15:45:55.608Z,47.53
2022-08-16T15:48:28.582Z,48.98
2022-08-16T15:50:59.113Z,48.31
2022-08-16T15:53:30.701Z,49.23
2022-08-16T15:55:59.214Z,46.88
2022-08-16T15:58:35.250Z,46.91
2022-08-16T16:01:05.768Z,46.15
2022-08-16T16:03:34.622Z,44.83
2022-08-16T16:06:03.932Z,47.41
2022-08-16T16:08:32.156Z,46.06
2022-08-16T16:11:03.329Z,46.25
2022-08-16T16:13:31.402Z,44.74
2022-08-16T16:16:02.815Z,46.71
2022-08-16T16:18:31.601Z,47.25
2022-08-16T16:21:08.382Z,48.17
2022-08-16T16:23:54.877Z,46.61
2022-08-16T16:26:26.722Z,46.72
2022-08-16T16:29:08.532Z,45.63
2022-08-16T16:31:41.754Z,45.78
2022-08-16T16:34:10.923Z,47.96
2022-08-16T16:36:39.777Z,45.56
2022-08-16T16:39:10.908Z,47.51
2022-08-16T16:41:39.550Z,47.73
2022-08-16T16:44:09.106Z,48.31
2022-08-16T16:46:43.019Z,48.73
2022-08-16T16:49:14.179Z,48.04
2022-08-16T16:51:47.031Z,49.30
2022-08-16T16:54:27.530Z,48.67
2022-08-16T16:56:56.557Z,49.17
2022-08-16T16:59:25.550Z,48.76
2022-08-16T17:01:59.737Z,48.25
2022-08-16T17:04:42.226Z,47.69
2022-08-16T17:07:10.552Z,47.63
2022-08-16T17:09:40.326Z,48.39
2022-08-16T17:12:09.654Z,48.84
2022-08-16T17:14:38.518Z,48.03
2022-08-16T17:17:11.655Z,49.37
2022-08-16T17:19:40.814Z,49.96
2022-08-16T17:22:19.900Z,50.32
2022-08-16T17:24:52.810Z,49.70
2022-08-16T17:27:33.214Z,50.91
2022-08-16T17:30:14.879Z,50.33
2022-08-16T17:32:48.722Z,51.43
2022-08-16T17:35:21.637Z,51.76
2022-08-16T17:37:52.138Z,51.72
2022-08-16T17:40:47.536Z,52.20
2022-08-16T17:43:18.571Z,51.99
2022-08-16T17:45:46.370Z,52.38
2022-08-16T17:48:13.133Z,53.06
2022-08-16T17:50:40.941Z,53.50
2022-08-16T17:53:08.396Z,54.21
2022-08-16T17:55:38.618Z,54.49
2022-08-16T17:58:20.961Z,54.34
2022-08-16T18:00:52.423Z,54.44
2022-08-16T18:04:07.803Z,54.71
2022-08-16T18:06:13.159Z,55.17
2022-08-16T18:08:40.286Z,54.25
2022-08-16T18:11:10.179Z,55.67
2022-08-16T18:13:42.905Z,54.83
2022-08-16T18:16:10.360Z,54.96
2022-08-16T18:18:37.341Z,55.33
2022-08-16T18:21:22.890Z,55.15
2022-08-16T18:23:49.482Z,55.54
2022-08-16T18:26:16.081Z,55.46
2022-08-16T18:28:42.852Z,55.22
2022-08-16T18:31:09.453Z,55.23
2022-08-16T18:33:43.542Z,54.51
2022-08-16T18:36:20.838Z,54.73
2022-08-16T18:38:49.390Z,54.97
2022-08-16T18:41:16.609Z,54.72
2022-08-16T18:43:59.169Z,55.29
2022-08-16T18:46:31.001Z,55.48
2022-08-16T18:48:57.537Z,55.65
2022-08-16T18:51:25.339Z,56.05
2022-08-16T18:53:53.126Z,56.29
2022-08-16T18:56:19.789Z,56.15
2022-08-16T18:58:46.468Z,56.12
2022-08-16T19:01:13.677Z,55.99
2022-08-16T19:03:40.377Z,56.26
2022-08-16T19:06:13.644Z,56.35
2022-08-16T19:08:45.555Z,56.45
2022-08-16T19:11:23.333Z,56.14
2022-08-16T19:13:50.166Z,56.04
2022-08-16T19:16:16.817Z,56.23
2022-08-16T19:18:48.750Z,56.56
2022-08-16T19:21:16.132Z,56.13
2022-08-16T19:23:44.071Z,55.58
2022-08-16T19:26:25.625Z,55.39
2022-08-16T19:28:58.873Z,55.71
2022-08-16T19:31:30.532Z,55.71
2022-08-16T19:33:58.047Z,55.72
2022-08-16T19:36:36.390Z,55.85
2022-08-16T19:39:11.916Z,56.08
2022-08-16T19:41:39.559Z,56.49
2022-08-16T19:44:07.278Z,56.44
2022-08-16T19:46:34.884Z,55.70
2022-08-16T19:49:01.657Z,55.56
2022-08-16T19:51:28.522Z,55.51
2022-08-16T19:53:55.092Z,55.81
2022-08-16T19:56:25.730Z,55.60
2022-08-16T19:59:17.414Z,55.48
2022-08-16T20:01:42.322Z,55.63
2022-08-16T20:04:12.004Z,55.25
2022-08-16T20:06:39.589Z,55.66
2022-08-16T20:09:10.394Z,55.75
2022-08-16T20:11:41.875Z,56.57
2022-08-16T20:14:08.418Z,56.58
2022-08-16T20:16:35.734Z,56.25
2022-08-16T20:19:04.439Z,56.46
2022-08-16T20:21:31.362Z,56.54
2022-08-16T20:24:22.755Z,56.99
2022-08-16T20:26:45.675Z,56.68
2022-08-16T20:29:12.257Z,56.92
2022-08-16T20:31:39.265Z,56.83
2022-08-16T20:34:06.121Z,56.16
2022-08-16T20:36:32.713Z,56.16
2022-08-16T20:39:00.241Z,56.20
2022-08-16T20:41:27.270Z,55.75
2022-08-16T20:43:54.964Z,55.77
2022-08-16T20:46:22.446Z,55.87
2022-08-16T20:48:49.612Z,56.08
2022-08-16T20:51:17.134Z,56.40
2022-08-16T20:53:44.306Z,55.86
2022-08-16T20:56:11.937Z,56.35
2022-08-16T20:58:39.255Z,56.29
2022-08-16T21:01:07.116Z,56.45
2022-08-16T21:03:34.172Z,56.32
2022-08-16T21:06:05.337Z,56.62
2022-08-16T21:08:53.026Z,56.58
2022-08-16T21:11:21.559Z,56.79
2022-08-16T21:13:48.273Z,56.45
2022-08-16T21:16:16.908Z,56.38
2022-08-16T21:18:43.484Z,56.58
2022-08-16T21:21:12.033Z,56.33
2022-08-16T21:23:38.853Z,56.54
2022-08-16T21:26:05.840Z,56.80
2022-08-16T21:28:41.960Z,56.95
2022-08-16T21:31:15.219Z,56.06
2022-08-16T21:33:43.158Z,56.32
2022-08-16T21:36:10.398Z,56.76
2022-08-16T21:38:37.103Z,56.89
2022-08-16T21:41:05.462Z,57.56
2022-08-16T21:43:33.349Z,57.69
2022-08-16T21:46:02.451Z,57.64
2022-08-16T21:48:34.724Z,57.55
2022-08-16T21:51:11.215Z,57.52
2022-08-16T21:53:38.032Z,57.56
2022-08-16T21:56:06.867Z,56.99
2022-08-16T21:58:36.789Z,57.16
2022-08-16T22:01:03.914Z,57.77
2022-08-16T22:03:32.961Z,58.10
2022-08-16T22:06:13.125Z,58.67
2022-08-16T22:08:50.297Z,58.50
2022-08-16T22:11:19.705Z,59.16
2022-08-16T22:13:58.137Z,59.61
2022-08-16T22:16:32.676Z,60.01
2022-08-16T22:19:00.511Z,61.03
2022-08-16T22:21:27.411Z,62.64
2022-08-16T22:23:57.133Z,64.23
2022-08-16T22:26:29.752Z,64.03
2022-08-16T22:28:57.786Z,66.76
2022-08-16T22:31:25.303Z,68.86
2022-08-16T22:33:52.022Z,69.88
2022-08-16T22:36:18.630Z,71.70
2022-08-16T22:38:53.724Z,71.55
2022-08-16T22:41:22.242Z,71.53
2022-08-16T22:43:48.873Z,73.65
2022-08-16T22:46:15.948Z,73.91
2022-08-16T22:48:43.115Z,73.34
2022-08-16T22:51:10.089Z,72.71
2022-08-16T22:53:37.345Z,73.77
2022-08-16T22:56:04.759Z,74.02
2022-08-16T22:58:36.262Z,74.54
2022-08-16T23:01:06.438Z,74.61
2022-08-16T23:03:33.443Z,75.01
2022-08-16T23:06:00.747Z,74.81
2022-08-16T23:08:38.128Z,74.89
2022-08-16T23:11:20.818Z,75.35
2022-08-16T23:13:56.989Z,75.13
2022-08-16T23:16:32.998Z,74.45
2022-08-16T23:19:08.267Z,74.72
2022-08-16T23:21:37.110Z,73.90
2022-08-16T23:24:04.343Z,74.73
2022-08-16T23:26:36.480Z,74.85
2022-08-16T23:29:23.556Z,75.00
2022-08-16T23:31:54.735Z,74.56
2022-08-16T23:34:22.139Z,73.89
2022-08-16T23:36:49.557Z,74.24
2022-08-16T23:39:16.329Z,74.29
2022-08-16T23:41:43.789Z,74.89
2022-08-16T23:44:56.477Z,75.72
2022-08-16T23:46:57.231Z,75.98
2022-08-16T23:49:59.293Z,76.01
2022-08-16T23:52:10.724Z,76.30
2022-08-16T23:54:37.478Z,76.22
2022-08-16T23:57:04.433Z,76.56
2022-08-16T23:59:52.611Z,76.39
